Race Coverage Navigation

TS # 31 / Weaubleau, MO  2019

 


TS STATS
TS Distance 65.45 
Total Distance 1844.21 
Miles To Go 1226.07 
TS Climbing 1795 
Total Climbing
TS  Elevation
TS  Net Elevation 2852 
Map Filename Open Map 
Directions Filename  
Latitude 37.89 
Longitude -93.54 
Google Map  TimeStation Map 


TS Arrival Data
Arr Ord  #/Name Arrival DT TS Dst Avg This TS Avg Overall
 1 377 - Christoph Strasser  06/16/2019 8:09 65.45  9.51  16.54 
 2 279 - Marko Baloh  06/16/2019 20:46 65.45  14.6  14.86 
 3 288 - Dave Haase  06/16/2019 22:10 65.45  16.64  14.69 
 4 609 - Jakob Olsen  06/17/2019 2:49 65.45  12.23  14.14 
 5 617 - SOLO.kiwi (Craig Harper)  06/17/2019 11:06 65.45  7.1  13.28 
 6 612 - Markus K. Brandl  06/17/2019 15:21 65.45  15.05  12.89 
 7 329 - Peter Oyler  06/17/2019 15:52 65.45  16.03  12.87 
 8 367 - Daniela Genovesi  06/17/2019 18:57 65.45  13.59  12.56 
 9 622 - Thomas Odom-Team Kyle Pease Foundation  06/17/2019 19:09 65.45  12.31  12.55 
 10 416 - Leah Goldstein  06/17/2019 20:18 65.45  11.97  12.44 
 11 529 - Isa Pulver  06/17/2019 20:32 65.45  3.83  12.42 
 12 623 - Ultra Paka Racing Team (Daniel Polman)  06/17/2019 21:55 65.45  11.72  12.31 
 13 615 - Philipp Amhof  06/18/2019 3:36 65.45  9.22  11.87 
 14 603 - Alan Bradley  06/18/2019 3:52 65.45  8.39  11.86 
 15 611 - Marcelo Soares " MIXIRICA "  06/18/2019 8:19 65.45  7.95  11.53 
 16 559 - Team Martin RAAM 2019 (Martin Bergmeister)  06/18/2019 11:20 65.45  14.33  11.32 
 17 510 - John C. Tarlton  06/18/2019 11:25 65.45  12.55  11.32 
 18 568 - Alexandra Meixner  06/18/2019 12:51 65.45  15.05  11.19 
 19 411 - Geoff Brunner  06/18/2019 12:51 65.45  11.55  11.22 
 20 442 - Joe Barr  06/18/2019 12:52 65.45  11.76  11.22 
 21 604 - Chieko Ozawa  06/18/2019 13:14 65.45  8.16  11.16 
 22 610 - Kabir Rachure  06/18/2019 16:58 65.45  11.06  10.94 
 23 618 - GREGORY ROBINSON  06/18/2019 23:19 65.45  18.97  10.53 
 24 399 - Valerio Zamboni  06/18/2019 23:22 65.45  9.53  10.55 
 25 T411 - team alpha - tischlerei groemmer  06/18/2019 23:53 65.45  25.17  22.9 
 26 T800 - Backstedt Racing Project 14  06/19/2019 0:13 65.45  23.51  22.84 
 27 424 - Team i RON man Veterans supporting Veterans  06/19/2019 4:24 65.45  9.87  10.25 
 28 T404 - Gentlemen of speed  06/19/2019 4:41 65.45  22.57  21.58 
 29 T401 - Data Techniques powered by Networks Centre  06/19/2019 5:08 65.45  20.78  21.46 
 30 161 - Seana Hogan  06/19/2019 7:24 65.45  11.16  10.06 
 31 T805 - Team Oceanside  06/19/2019 10:16 65.45  17.45  20.33 
 32 T201 - EAT WELL  06/19/2019 10:42 65.45  18.7  20.11 
 33 T407 - Julian Becker   06/19/2019 10:57 65.45  22.7  20.12 
 34 T807 - Team ZOE International  06/19/2019 11:05 65.45  20.67  20.16 
 35 T802 - Scorchers  06/19/2019 12:45 65.45  24.09  19.78 
 36 608 - Elin Starup  06/19/2019 12:52 65.45  10.82  9.77 
 37 T416 - Team Rotary Raams Polio  06/19/2019 13:52 65.45  22.57  19.53 
 38 T408 - Radeln-fuer-Kinder (Cycling-for-Kids)  06/19/2019 14:52 65.45  21.82  19.3 
 39 T804 - Team FSHD Skyland Trail  06/19/2019 15:07 65.45  18.52  19.3 
 40 T400 - Cantastic4  06/19/2019 15:45 65.45  21.58  19.09 
 41 T808 - Antonia's Friends 2019  06/19/2019 16:54 65.45  20.89  18.96 
 42 T406 - Operation Walk Midwest  06/19/2019 17:34 65.45  19.34  18.76 
 43 T412 - Team Aspect  06/19/2019 18:55 65.45  26.18  18.53 
 44 T418 - The Opportunists  06/19/2019 19:16 65.45  23.66  18.48 
 45 T410 - Soap-Aid  06/19/2019 21:52 65.45  20.78  17.99 
 46 T414 - Brazil Nuts  06/19/2019 23:57 65.45  14.93  17.64 
 47 T405 - High Rollers  06/20/2019 1:02 65.45  17.15  17.43 
 48 T803 - Team EndoPark  06/20/2019 1:07 65.45  18.79  17.47 
 49 T202 - Integra Medical - BAA Racing  06/20/2019 1:17 65.45  18.01  17.36 
 50 T415 - TEAM FIRE VELO 935  06/20/2019 2:28 65.45  18.52  17.23 
 51 T206 - Project Linear Acceleration  06/20/2019 4:05 65.45  16.5  16.92 
 52 T403 - EKJ Denmark  06/20/2019 4:21 65.45  16.57  16.9 
 53 T204 - Lucan CRC  06/20/2019 4:28 65.45  16.5  16.86 
 54 T413 - TEAM BRASIL - SKIPPER  06/20/2019 5:26 65.45  25.67  16.76 
 55 T402 - EA/WFP RAAM Team  06/20/2019 6:17 65.45  16.03  16.6 
 56 T806 - Team SuperMarrow  06/20/2019 7:06 65.45  14.82  16.54 
 57 T801 - Mind Over Matter  06/20/2019 7:35 65.45  15.83  16.45 
 58 T417 - Team4RAAM 2019 powered by TGW Living Logistics  06/20/2019 9:50 65.45  20.24  16.12 
 59 T200 - AIR RELAX GoPro TEAM BRASIL  06/20/2019 9:54 65.45  17.53  16.05 
 60 T409 - Serpentine Golden Girls  06/20/2019 18:16 65.45  16.23  15 
 61 T203 - JPsDuo  06/20/2019 21:27 65.45  14.71  14.59 
 62 T207 - Team Life Time  06/20/2019 23:43 65.45  14.38  14.34 
 63 T210 - Bike Wine Team  06/21/2019 3:40 65.45  13.78  13.92 
 64 T205 - Prevent Breast Cancer powered by Endomag  06/21/2019 4:20 65.45  13.05  13.84